Time;durP1;ratioP1;P1;durP2;ratioP2;P2;SDS_P1;SDS_P2;PMS_P1;PMS_P2;Temp;Humidity;BMP_temperature;BMP_pressure;BME280_temperature;BME280_humidity;BME280_pressure;Samples;Min_cycle;Max_cycle;Signal;HPM_P1;HPM_P2
2023/12/31 00:00:28;;;;;;;7.13;1.95;;;7.00;99.90;;;;;;5064274;28;20099;-44
2023/12/31 00:02:54;;;;;;;6.45;2.03;;;7.00;99.90;;;;;;5061523;28;20051;-46
2023/12/31 00:05:19;;;;;;;10.18;2.20;;;7.00;99.90;;;;;;5064134;28;20351;-44
2023/12/31 00:07:45;;;;;;;4.55;1.85;;;7.00;99.90;;;;;;5060381;28;20039;-45
2023/12/31 00:10:11;;;;;;;3.85;1.73;;;6.90;99.90;;;;;;5063582;28;20060;-44
2023/12/31 00:12:37;;;;;;;8.75;2.60;;;7.00;99.90;;;;;;5062916;28;20102;-44
2023/12/31 00:15:04;;;;;;;5.95;1.90;;;7.00;99.90;;;;;;5062615;28;20436;-44
2023/12/31 00:17:30;;;;;;;11.27;2.92;;;6.90;99.90;;;;;;5063773;28;20468;-45
2023/12/31 00:19:56;;;;;;;8.30;2.00;;;7.00;99.90;;;;;;5061973;28;20143;-43
2023/12/31 00:22:21;;;;;;;9.32;2.25;;;7.00;99.90;;;;;;5062413;28;20112;-43
2023/12/31 00:24:51;;;;;;;7.95;2.30;;;6.90;99.90;;;;;;5060492;28;20036;-44
2023/12/31 00:27:17;;;;;;;6.60;1.80;;;6.90;99.90;;;;;;5063701;28;20031;-45
2023/12/31 00:29:44;;;;;;;11.05;2.55;;;7.00;99.90;;;;;;5062792;28;20024;-45
2023/12/31 00:32:10;;;;;;;7.72;2.33;;;7.00;99.90;;;;;;5063702;28;20465;-44
2023/12/31 00:34:36;;;;;;;7.00;2.72;;;7.00;99.90;;;;;;5064423;28;20028;-44
2023/12/31 00:37:02;;;;;;;10.93;2.65;;;7.00;99.90;;;;;;5066003;28;20449;-43
2023/12/31 00:39:28;;;;;;;7.80;2.67;;;7.00;99.90;;;;;;5067548;28;20029;-44
2023/12/31 00:41:53;;;;;;;6.25;2.50;;;7.00;99.90;;;;;;5065891;28;20064;-44
2023/12/31 00:44:19;;;;;;;6.15;2.08;;;7.00;99.90;;;;;;5067877;28;20099;-47
2023/12/31 00:46:45;;;;;;;7.60;1.90;;;7.00;99.90;;;;;;5066121;28;20097;-44
2023/12/31 00:49:10;;;;;;;5.47;1.83;;;7.00;99.90;;;;;;5065884;28;20032;-44
2023/12/31 00:51:36;;;;;;;9.57;1.85;;;7.00;99.90;;;;;;5067507;28;20390;-43
2023/12/31 00:54:01;;;;;;;8.18;2.22;;;7.00;99.90;;;;;;5066128;28;20024;-44
2023/12/31 00:56:27;;;;;;;5.32;1.70;;;7.00;99.90;;;;;;5066562;28;20111;-43
2023/12/31 00:58:53;;;;;;;5.20;2.05;;;7.00;99.90;;;;;;5065641;28;20025;-45
2023/12/31 01:01:18;;;;;;;5.32;1.45;;;7.00;99.90;;;;;;5067985;28;20021;-44
2023/12/31 01:03:44;;;;;;;3.92;1.63;;;7.00;99.90;;;;;;5066483;28;20025;-45
2023/12/31 01:06:09;;;;;;;8.10;1.88;;;7.00;99.90;;;;;;5067382;28;20355;-44
2023/12/31 01:08:35;;;;;;;5.25;1.40;;;7.10;99.90;;;;;;5066149;28;20052;-45
2023/12/31 01:11:01;;;;;;;5.60;1.77;;;7.10;99.90;;;;;;5066145;28;20355;-43
2023/12/31 01:13:28;;;;;;;4.70;2.25;;;7.10;99.90;;;;;;5064574;28;20079;-44
2023/12/31 01:15:53;;;;;;;5.50;1.50;;;7.20;99.90;;;;;;5054578;28;20087;-45
2023/12/31 01:18:19;;;;;;;6.47;2.17;;;7.20;99.90;;;;;;5055735;28;20056;-44
2023/12/31 01:20:45;;;;;;;4.20;1.67;;;7.30;99.90;;;;;;5064047;28;20194;-44
2023/12/31 01:23:11;;;;;;;5.20;1.58;;;7.20;99.90;;;;;;5067488;28;20034;-44
2023/12/31 01:25:37;;;;;;;6.18;1.45;;;7.20;99.90;;;;;;5063348;28;20048;-44
2023/12/31 01:28:02;;;;;;;5.13;1.90;;;7.20;99.90;;;;;;5055136;28;20083;-43
2023/12/31 01:30:28;;;;;;;4.95;1.67;;;7.20;99.90;;;;;;5054100;28;20075;-44
2023/12/31 01:32:54;;;;;;;3.92;1.70;;;7.20;99.90;;;;;;5053852;28;20021;-47
2023/12/31 01:35:20;;;;;;;6.95;2.13;;;7.10;99.90;;;;;;5052302;28;20378;-44
2023/12/31 01:37:46;;;;;;;7.22;2.25;;;7.10;99.90;;;;;;5051519;28;20025;-43
2023/12/31 01:40:12;;;;;;;5.75;2.53;;;7.10;99.90;;;;;;5053252;28;20429;-43
2023/12/31 01:42:39;;;;;;;11.32;2.33;;;7.10;99.90;;;;;;5052680;28;20017;-46
2023/12/31 01:45:05;;;;;;;7.05;2.25;;;7.10;99.90;;;;;;5052258;28;20025;-44
2023/12/31 01:47:32;;;;;;;6.00;2.05;;;7.10;99.90;;;;;;5050656;28;20021;-43
2023/12/31 01:49:59;;;;;;;4.07;1.80;;;7.10;99.90;;;;;;5053416;28;20120;-45
2023/12/31 01:52:25;;;;;;;5.20;1.83;;;7.10;99.90;;;;;;5051988;28;20422;-44
2023/12/31 01:54:54;;;;;;;7.18;1.95;;;7.10;99.90;;;;;;5052165;28;20017;-44
2023/12/31 01:57:25;;;;;;;6.10;1.73;;;7.10;99.90;;;;;;5060987;28;20470;-45
2023/12/31 01:59:53;;;;;;;5.25;2.10;;;7.10;99.90;;;;;;5066981;28;20077;-44
2023/12/31 02:02:21;;;;;;;4.82;2.13;;;7.10;99.90;;;;;;5068114;28;20478;-45
2023/12/31 02:04:47;;;;;;;3.85;1.73;;;7.10;99.90;;;;;;5066717;28;20039;-44
2023/12/31 02:07:12;;;;;;;4.05;1.95;;;7.00;99.90;;;;;;5058848;28;20040;-44
2023/12/31 02:09:38;;;;;;;3.90;1.70;;;7.00;99.90;;;;;;5068065;28;20657;-44
2023/12/31 02:12:05;;;;;;;6.38;1.60;;;7.00;99.90;;;;;;5066960;28;20025;-43
2023/12/31 02:14:31;;;;;;;10.32;1.85;;;7.00;99.90;;;;;;5068058;28;20478;-43
2023/12/31 02:16:57;;;;;;;5.35;1.67;;;7.00;99.90;;;;;;5067019;28;20104;-44
2023/12/31 02:19:23;;;;;;;4.13;2.00;;;6.90;99.90;;;;;;5067732;28;20038;-45
2023/12/31 02:21:49;;;;;;;15.20;1.90;;;6.90;99.90;;;;;;5065876;28;20029;-44
2023/12/31 02:24:18;;;;;;;2.75;1.60;;;6.90;99.90;;;;;;5068207;28;20017;-43
2023/12/31 02:26:43;;;;;;;3.85;1.30;;;6.80;99.90;;;;;;5066096;28;20036;-46
2023/12/31 02:29:09;;;;;;;2.42;1.40;;;6.80;99.90;;;;;;5067542;28;20028;-43
2023/12/31 02:31:35;;;;;;;2.20;1.27;;;6.80;99.90;;;;;;5068201;28;20429;-43
2023/12/31 02:34:01;;;;;;;3.20;1.25;;;6.70;99.90;;;;;;5066402;28;20046;-44
2023/12/31 02:36:26;;;;;;;2.85;1.63;;;6.70;99.90;;;;;;5067977;28;20478;-45
2023/12/31 02:38:52;;;;;;;3.50;1.80;;;6.70;99.90;;;;;;5066747;28;20098;-43
2023/12/31 02:41:18;;;;;;;3.63;1.42;;;6.60;99.90;;;;;;5068208;28;20382;-45
2023/12/31 02:43:44;;;;;;;3.25;1.38;;;6.60;99.90;;;;;;5067912;28;20029;-45
2023/12/31 02:46:11;;;;;;;4.05;2.00;;;6.50;99.90;;;;;;5067561;28;20391;-44
2023/12/31 02:48:36;;;;;;;3.60;1.70;;;6.50;99.90;;;;;;5067563;28;20032;-43
2023/12/31 02:51:02;;;;;;;2.78;1.60;;;6.50;99.90;;;;;;5066822;28;20024;-46
2023/12/31 02:53:28;;;;;;;6.85;2.10;;;6.40;99.90;;;;;;5066311;28;20028;-42
2023/12/31 02:55:54;;;;;;;7.22;2.10;;;6.40;99.90;;;;;;5066979;28;20024;-44
2023/12/31 02:58:20;;;;;;;4.07;1.92;;;6.40;99.90;;;;;;5067864;28;20074;-46
2023/12/31 03:00:45;;;;;;;8.63;2.08;;;6.30;99.90;;;;;;5067579;28;20527;-43
2023/12/31 03:03:11;;;;;;;7.25;1.85;;;6.30;99.90;;;;;;5066141;28;20058;-45
2023/12/31 03:05:37;;;;;;;4.65;1.73;;;6.30;99.90;;;;;;5067621;28;20546;-43
2023/12/31 03:08:03;;;;;;;9.55;2.28;;;6.30;99.90;;;;;;5065557;28;20033;-45
2023/12/31 03:10:28;;;;;;;6.20;2.47;;;6.30;99.90;;;;;;5067863;28;20024;-44
2023/12/31 03:12:54;;;;;;;5.38;1.80;;;6.20;99.90;;;;;;5067301;28;20478;-44
2023/12/31 03:15:20;;;;;;;2.75;1.77;;;6.20;99.90;;;;;;5067930;28;20416;-45
2023/12/31 03:17:45;;;;;;;3.97;2.08;;;6.10;99.90;;;;;;5067775;28;20359;-43
2023/12/31 03:20:11;;;;;;;3.92;1.83;;;6.10;99.90;;;;;;5068136;28;20179;-46
2023/12/31 03:22:37;;;;;;;5.18;1.80;;;6.10;99.90;;;;;;5067911;28;20043;-44
2023/12/31 03:25:04;;;;;;;3.85;1.88;;;6.00;99.90;;;;;;5067586;28;20028;-48
2023/12/31 03:27:29;;;;;;;7.00;1.77;;;5.90;99.90;;;;;;5066215;28;20033;-46
2023/12/31 03:29:55;;;;;;;4.43;1.50;;;5.90;99.90;;;;;;5066405;28;20067;-43
2023/12/31 03:32:21;;;;;;;4.80;1.85;;;5.90;99.90;;;;;;5063546;28;20386;-45
2023/12/31 03:34:46;;;;;;;3.58;1.52;;;5.90;99.90;;;;;;5064640;28;20020;-44
2023/12/31 03:37:12;;;;;;;12.65;2.45;;;5.90;99.90;;;;;;5067628;28;20535;-46
2023/12/31 03:39:38;;;;;;;4.97;2.00;;;5.90;99.90;;;;;;5068031;28;20021;-45
2023/12/31 03:42:04;;;;;;;9.35;2.20;;;6.00;99.90;;;;;;5066543;28;20059;-45
2023/12/31 03:44:30;;;;;;;7.43;2.47;;;6.10;99.90;;;;;;5068105;28;20060;-44
2023/12/31 03:46:56;;;;;;;4.72;2.15;;;6.00;99.90;;;;;;5067642;28;20328;-44
2023/12/31 03:49:21;;;;;;;6.57;1.98;;;6.10;99.90;;;;;;5068049;28;20028;-45
2023/12/31 03:51:47;;;;;;;6.85;2.15;;;6.10;99.90;;;;;;5068255;28;20028;-44
2023/12/31 03:54:13;;;;;;;4.75;2.33;;;6.10;99.90;;;;;;5039995;28;20025;-46
2023/12/31 03:56:38;;;;;;;6.35;2.20;;;6.20;99.90;;;;;;5048304;28;20112;-45
2023/12/31 03:59:04;;;;;;;4.43;2.25;;;6.10;99.90;;;;;;5047935;28;20537;-42
2023/12/31 04:01:29;;;;;;;5.32;3.05;;;6.10;99.90;;;;;;5048669;28;20029;-45
2023/12/31 04:03:55;;;;;;;4.00;2.17;;;6.10;99.90;;;;;;5048547;28;20099;-45
2023/12/31 04:06:20;;;;;;;10.65;2.72;;;6.20;99.90;;;;;;5048549;28;20064;-44
2023/12/31 04:08:47;;;;;;;4.60;1.88;;;6.20;99.90;;;;;;5048259;28;20059;-47
2023/12/31 04:11:13;;;;;;;4.18;2.25;;;6.20;99.90;;;;;;5052109;28;20052;-46
2023/12/31 04:13:41;;;;;;;3.53;2.10;;;6.20;99.90;;;;;;5051150;28;20394;-43
2023/12/31 04:16:08;;;;;;;5.53;2.85;;;6.20;99.90;;;;;;5052265;28;20470;-44
2023/12/31 04:18:34;;;;;;;12.90;2.47;;;6.10;99.90;;;;;;5052388;28;20025;-44
2023/12/31 04:21:00;;;;;;;7.50;2.55;;;6.10;99.90;;;;;;5052555;28;20134;-43
2023/12/31 04:23:26;;;;;;;7.05;2.42;;;6.10;99.90;;;;;;5051275;28;20033;-44
2023/12/31 04:25:51;;;;;;;6.03;2.25;;;6.10;99.90;;;;;;5052399;28;20280;-43
2023/12/31 04:28:17;;;;;;;4.50;2.25;;;6.10;99.90;;;;;;5051992;28;20056;-43
2023/12/31 04:30:43;;;;;;;9.52;3.55;;;6.10;99.90;;;;;;5052138;28;20075;-44
2023/12/31 04:33:09;;;;;;;5.88;2.10;;;6.00;99.90;;;;;;5052578;28;20024;-43
2023/12/31 04:35:34;;;;;;;4.32;2.22;;;6.00;99.90;;;;;;5052325;28;20029;-41
2023/12/31 04:38:00;;;;;;;8.43;2.60;;;6.00;99.90;;;;;;5052316;28;20021;-43
2023/12/31 04:40:26;;;;;;;6.38;2.30;;;6.00;99.90;;;;;;5052330;28;20061;-41
2023/12/31 04:42:52;;;;;;;9.15;3.00;;;5.90;99.90;;;;;;5052777;28;20395;-41
2023/12/31 04:45:17;;;;;;;8.88;2.50;;;5.90;99.90;;;;;;5050877;28;20028;-41
2023/12/31 04:47:43;;;;;;;3.90;2.10;;;5.90;99.90;;;;;;5051947;28;20024;-42
2023/12/31 04:50:08;;;;;;;10.60;2.60;;;5.90;99.90;;;;;;5052707;28;20059;-45
2023/12/31 04:52:34;;;;;;;8.90;2.60;;;5.90;99.90;;;;;;5051249;28;20139;-41
2023/12/31 04:55:00;;;;;;;11.63;3.08;;;5.90;99.90;;;;;;5052809;28;20025;-42
2023/12/31 04:57:25;;;;;;;6.03;2.60;;;5.90;99.90;;;;;;5050712;28;20474;-42
2023/12/31 04:59:51;;;;;;;8.90;2.28;;;5.90;99.90;;;;;;5052794;28;20486;-41
2023/12/31 05:02:17;;;;;;;2.05;1.80;;;5.90;99.90;;;;;;5051549;28;20013;-42
2023/12/31 05:04:43;;;;;;;8.80;2.63;;;5.90;99.90;;;;;;5051000;28;20196;-42
2023/12/31 05:07:09;;;;;;;6.93;2.63;;;5.90;99.90;;;;;;5052565;28;20081;-41
2023/12/31 05:09:35;;;;;;;4.68;2.75;;;5.90;99.90;;;;;;5052528;28;20036;-42
2023/12/31 05:12:01;;;;;;;4.00;2.25;;;5.90;99.90;;;;;;5052871;28;20090;-43
2023/12/31 05:14:27;;;;;;;2.95;2.00;;;5.90;99.90;;;;;;5052423;28;20053;-44
2023/12/31 05:16:52;;;;;;;8.63;2.53;;;5.90;99.90;;;;;;5052992;28;20017;-41
2023/12/31 05:19:18;;;;;;;4.57;2.38;;;5.90;99.90;;;;;;5052313;28;20398;-44
2023/12/31 05:21:44;;;;;;;7.57;2.70;;;5.90;99.90;;;;;;5050982;28;20452;-42
2023/12/31 05:24:10;;;;;;;4.75;2.50;;;5.90;99.90;;;;;;5053345;28;20028;-43
2023/12/31 05:26:36;;;;;;;6.45;2.30;;;5.90;99.90;;;;;;5052252;28;20021;-41
2023/12/31 05:29:01;;;;;;;7.55;2.88;;;5.90;99.90;;;;;;5052776;28;20029;-43
2023/12/31 05:31:27;;;;;;;2.85;1.95;;;5.90;99.90;;;;;;5051137;28;20021;-43
2023/12/31 05:33:53;;;;;;;3.55;2.13;;;5.80;99.90;;;;;;5053345;28;20528;-42
2023/12/31 05:36:19;;;;;;;5.20;2.38;;;5.80;99.90;;;;;;5051279;28;20017;-42
2023/12/31 05:38:44;;;;;;;4.30;2.05;;;5.80;99.90;;;;;;5052128;28;20021;-42
2023/12/31 05:41:10;;;;;;;7.07;2.45;;;5.80;99.90;;;;;;5053393;28;20025;-42
2023/12/31 05:43:35;;;;;;;9.93;2.60;;;5.70;99.90;;;;;;5052521;28;20100;-42
2023/12/31 05:46:01;;;;;;;6.40;2.30;;;5.70;99.90;;;;;;5053203;28;20032;-41
2023/12/31 05:48:27;;;;;;;4.57;2.40;;;5.70;99.90;;;;;;5052159;28;20033;-42
2023/12/31 05:50:53;;;;;;;5.65;2.83;;;5.70;99.90;;;;;;5053048;28;20124;-41
2023/12/31 05:53:18;;;;;;;8.32;3.00;;;5.60;99.90;;;;;;5052967;28;20017;-45
2023/12/31 05:55:46;;;;;;;13.65;3.80;;;5.60;99.90;;;;;;5052447;28;20025;-43
2023/12/31 05:58:11;;;;;;;6.45;2.47;;;5.60;99.90;;;;;;5053036;28;20052;-43
2023/12/31 06:00:37;;;;;;;6.70;3.00;;;5.60;99.90;;;;;;5052566;28;20075;-46
2023/12/31 06:03:03;;;;;;;6.45;3.00;;;5.60;99.90;;;;;;5054270;28;20028;-47
2023/12/31 06:05:28;;;;;;;5.70;2.67;;;5.50;99.90;;;;;;5057021;28;20067;-43
2023/12/31 06:07:54;;;;;;;5.93;2.13;;;5.50;99.90;;;;;;5053216;28;20025;-42
2023/12/31 06:10:20;;;;;;;5.95;2.50;;;5.50;99.90;;;;;;5052663;28;20044;-43
2023/12/31 06:12:45;;;;;;;4.85;2.20;;;5.50;99.90;;;;;;5053193;28;20075;-44
2023/12/31 06:15:11;;;;;;;6.38;2.50;;;5.40;99.90;;;;;;5053964;28;20028;-43
2023/12/31 06:17:38;;;;;;;5.43;2.13;;;5.40;99.90;;;;;;5052131;28;20394;-42
2023/12/31 06:20:04;;;;;;;6.50;2.45;;;5.40;99.90;;;;;;5052305;28;20444;-43
2023/12/31 06:22:30;;;;;;;6.85;2.90;;;5.40;99.90;;;;;;5052568;28;20774;-45
2023/12/31 06:24:56;;;;;;;5.63;2.50;;;5.40;99.90;;;;;;5052115;28;20124;-43
2023/12/31 06:27:23;;;;;;;6.95;2.55;;;5.40;99.90;;;;;;5051969;28;20033;-45
2023/12/31 06:29:50;;;;;;;4.35;2.17;;;5.50;99.90;;;;;;5052222;28;20033;-42
2023/12/31 06:32:16;;;;;;;8.07;2.55;;;5.50;99.90;;;;;;5050142;28;20021;-44
2023/12/31 06:34:42;;;;;;;7.63;2.72;;;5.50;99.90;;;;;;5050398;28;21019;-45
2023/12/31 06:37:07;;;;;;;6.07;2.10;;;5.50;99.90;;;;;;5053455;28;20032;-45
2023/12/31 06:39:33;;;;;;;4.90;2.25;;;5.50;99.90;;;;;;5052387;28;20029;-43
2023/12/31 06:41:58;;;;;;;3.92;2.10;;;5.50;99.90;;;;;;5050964;28;20240;-43
2023/12/31 06:44:24;;;;;;;6.22;2.35;;;5.60;99.90;;;;;;5052317;28;20482;-44
2023/12/31 06:46:49;;;;;;;9.15;2.42;;;5.50;99.90;;;;;;5051243;28;20036;-43
2023/12/31 06:49:15;;;;;;;10.98;3.40;;;5.60;99.90;;;;;;5053410;28;20028;-45
2023/12/31 06:51:41;;;;;;;3.95;2.00;;;5.60;99.90;;;;;;5052493;28;20056;-43
2023/12/31 06:54:08;;;;;;;6.07;2.45;;;5.70;99.90;;;;;;5053951;28;20017;-44
2023/12/31 06:56:33;;;;;;;6.47;2.25;;;5.70;99.90;;;;;;5052022;28;20033;-44
2023/12/31 06:58:59;;;;;;;5.13;2.55;;;5.70;99.90;;;;;;5053692;28;20086;-44
2023/12/31 07:01:24;;;;;;;6.95;2.25;;;5.70;99.90;;;;;;5052695;28;20062;-43
2023/12/31 07:03:50;;;;;;;3.88;2.08;;;5.80;99.90;;;;;;5052532;28;20025;-47
2023/12/31 07:06:16;;;;;;;4.75;2.78;;;5.80;99.90;;;;;;5053564;28;20696;-45
2023/12/31 07:08:41;;;;;;;2.95;1.98;;;5.80;99.90;;;;;;5050070;28;20029;-44
2023/12/31 07:11:08;;;;;;;8.23;2.65;;;5.80;99.90;;;;;;5047869;28;20133;-44
2023/12/31 07:13:33;;;;;;;5.85;2.20;;;5.80;99.90;;;;;;5047827;28;20025;-45
2023/12/31 07:16:00;;;;;;;4.45;1.90;;;5.80;99.90;;;;;;5049537;28;20041;-45
2023/12/31 07:18:26;;;;;;;5.20;2.17;;;5.80;99.90;;;;;;5048959;28;20063;-43
2023/12/31 07:20:55;;;;;;;6.68;2.78;;;5.80;99.90;;;;;;5049043;28;20057;-45
2023/12/31 07:23:21;;;;;;;3.42;2.10;;;5.80;99.90;;;;;;5048866;28;20037;-45
2023/12/31 07:25:47;;;;;;;5.40;2.60;;;5.80;99.90;;;;;;5048519;28;20031;-44
2023/12/31 07:28:13;;;;;;;3.72;2.55;;;5.80;99.90;;;;;;5048740;28;20486;-43
2023/12/31 07:30:43;;;;;;;4.18;2.13;;;5.80;99.90;;;;;;5049092;28;20485;-44
2023/12/31 07:33:09;;;;;;;8.40;2.30;;;5.90;99.90;;;;;;5049114;28;20052;-42
2023/12/31 07:35:36;;;;;;;6.07;2.20;;;5.90;99.90;;;;;;5048726;28;20052;-43
2023/12/31 07:38:03;;;;;;;5.53;2.55;;;5.90;99.90;;;;;;5048946;28;20040;-46
2023/12/31 07:40:28;;;;;;;4.75;2.20;;;6.00;99.90;;;;;;5049109;28;20067;-44
2023/12/31 07:42:54;;;;;;;4.35;1.67;;;6.00;99.90;;;;;;5049109;28;20021;-46
2023/12/31 07:45:19;;;;;;;5.88;2.75;;;6.00;99.90;;;;;;5047721;28;20028;-43
2023/12/31 07:47:46;;;;;;;11.52;2.55;;;6.10;99.90;;;;;;5048288;28;20097;-43
2023/12/31 07:50:12;;;;;;;3.92;1.85;;;6.20;99.90;;;;;;5049321;28;20025;-43
2023/12/31 07:52:37;;;;;;;4.70;2.15;;;6.20;99.90;;;;;;5048914;28;20025;-43
2023/12/31 07:55:03;;;;;;;6.22;1.83;;;6.20;99.90;;;;;;5050529;28;20021;-43
2023/12/31 07:57:29;;;;;;;2.63;1.52;;;6.30;99.90;;;;;;5048310;28;20013;-42
2023/12/31 07:59:55;;;;;;;3.05;1.70;;;6.30;99.90;;;;;;5049427;28;20036;-43
2023/12/31 08:02:20;;;;;;;2.72;1.85;;;6.30;99.90;;;;;;5050956;28;20028;-43
2023/12/31 08:04:46;;;;;;;2.75;1.50;;;6.40;99.90;;;;;;5048866;28;20017;-43
2023/12/31 08:07:11;;;;;;;4.47;1.77;;;6.40;99.90;;;;;;5048223;28;20414;-43
2023/12/31 08:09:37;;;;;;;3.85;1.73;;;6.40;99.90;;;;;;5048532;28;20329;-45
2023/12/31 08:12:03;;;;;;;6.13;1.80;;;6.50;99.90;;;;;;5047629;28;20087;-44
2023/12/31 08:14:29;;;;;;;3.45;1.95;;;6.60;99.90;;;;;;5048686;28;20021;-47
2023/12/31 08:16:55;;;;;;;3.20;1.65;;;6.70;99.90;;;;;;5048891;28;20017;-42
2023/12/31 08:19:21;;;;;;;3.58;1.85;;;6.70;99.90;;;;;;5048441;28;20494;-44
2023/12/31 08:21:47;;;;;;;3.15;2.00;;;6.70;99.90;;;;;;5048694;28;20025;-46
2023/12/31 08:24:20;;;;;;;3.22;1.60;;;6.80;99.90;;;;;;5051867;28;20029;-46
2023/12/31 08:26:46;;;;;;;4.55;1.73;;;6.80;99.90;;;;;;5052668;28;20048;-48
2023/12/31 08:29:11;;;;;;;3.05;1.63;;;6.90;99.90;;;;;;5055429;28;20051;-42
2023/12/31 08:31:37;;;;;;;5.40;1.92;;;7.00;99.90;;;;;;5053512;28;20021;-43
2023/12/31 08:34:03;;;;;;;5.65;2.13;;;7.00;99.90;;;;;;5055131;28;20029;-47
2023/12/31 08:36:29;;;;;;;3.05;1.70;;;7.10;99.90;;;;;;5053676;28;20100;-42
2023/12/31 08:38:55;;;;;;;3.45;1.52;;;7.10;99.90;;;;;;5051448;28;20198;-43
2023/12/31 08:41:20;;;;;;;2.70;1.80;;;7.10;99.90;;;;;;5054934;28;20025;-42
2023/12/31 08:43:47;;;;;;;2.72;1.70;;;7.20;99.90;;;;;;5053088;28;20411;-45
2023/12/31 08:46:12;;;;;;;3.88;1.85;;;7.20;99.90;;;;;;5056011;28;20025;-42
2023/12/31 08:48:38;;;;;;;3.40;1.65;;;7.20;99.90;;;;;;5051654;28;20028;-42
2023/12/31 08:51:04;;;;;;;4.82;1.58;;;7.30;99.90;;;;;;5055258;28;20029;-45
2023/12/31 08:53:30;;;;;;;5.22;1.70;;;7.30;99.90;;;;;;5054080;28;20104;-42
2023/12/31 08:55:55;;;;;;;5.30;2.55;;;7.30;99.90;;;;;;5055773;28;20415;-43
2023/12/31 08:58:21;;;;;;;2.28;1.65;;;7.40;99.90;;;;;;5057379;28;20533;-42
2023/12/31 09:00:47;;;;;;;5.60;1.80;;;7.40;99.90;;;;;;5057115;28;20024;-43
2023/12/31 09:03:12;;;;;;;4.82;2.08;;;7.40;99.90;;;;;;5056951;28;20028;-44
2023/12/31 09:05:38;;;;;;;2.97;1.75;;;7.40;99.90;;;;;;5056837;28;20494;-46
2023/12/31 09:08:04;;;;;;;7.80;2.13;;;7.40;99.90;;;;;;5057268;28;20059;-43
2023/12/31 09:10:30;;;;;;;3.08;1.85;;;7.40;99.90;;;;;;5058077;28;20028;-52
2023/12/31 09:12:55;;;;;;;4.38;1.88;;;7.40;99.90;;;;;;5058055;28;20494;-42
2023/12/31 09:15:21;;;;;;;3.25;1.60;;;7.40;99.90;;;;;;5058579;28;20048;-42
2023/12/31 09:17:47;;;;;;;3.85;2.42;;;7.40;99.90;;;;;;5055298;28;20031;-44
2023/12/31 09:20:13;;;;;;;3.10;2.40;;;7.40;99.90;;;;;;5059245;28;20025;-42
2023/12/31 09:22:39;;;;;;;3.83;2.40;;;7.40;99.90;;;;;;5056393;28;20017;-42
2023/12/31 09:25:08;;;;;;;3.42;2.22;;;7.30;99.90;;;;;;5058783;28;20490;-43
2023/12/31 09:27:35;;;;;;;3.85;1.85;;;7.40;99.90;;;;;;5056396;28;20139;-46
2023/12/31 09:30:00;;;;;;;5.55;2.58;;;7.40;99.90;;;;;;5054654;28;20596;-42
2023/12/31 09:32:26;;;;;;;5.15;2.28;;;7.40;99.90;;;;;;5054833;28;20065;-44
2023/12/31 09:34:52;;;;;;;7.10;2.30;;;7.40;99.90;;;;;;5056727;28;20047;-42
2023/12/31 09:37:20;;;;;;;3.63;2.70;;;7.50;99.90;;;;;;5057370;28;20382;-43
2023/12/31 09:39:47;;;;;;;4.07;2.60;;;7.50;99.90;;;;;;5056380;28;20017;-42
2023/12/31 09:42:15;;;;;;;6.38;2.95;;;7.60;99.90;;;;;;5059794;28;20025;-43
2023/12/31 09:44:44;;;;;;;3.50;2.10;;;7.60;99.90;;;;;;5055071;28;20024;-45
2023/12/31 09:47:11;;;;;;;3.28;2.20;;;7.60;99.90;;;;;;5057751;28;20123;-43
2023/12/31 09:49:37;;;;;;;6.38;2.45;;;7.70;99.90;;;;;;5057289;28;20030;-43
2023/12/31 09:52:04;;;;;;;6.35;2.10;;;7.70;99.90;;;;;;5058676;28;20032;-45
2023/12/31 09:54:32;;;;;;;3.63;2.60;;;7.80;99.90;;;;;;5057874;28;20378;-43
2023/12/31 09:56:58;;;;;;;5.65;2.58;;;7.70;99.90;;;;;;5057632;28;20114;-45
2023/12/31 09:59:27;;;;;;;5.93;2.63;;;7.80;99.90;;;;;;5058658;28;20078;-43
2023/12/31 10:02:03;;;;;;;4.07;2.35;;;7.80;99.90;;;;;;5054742;28;20020;-42
2023/12/31 10:04:30;;;;;;;5.05;2.35;;;7.80;99.90;;;;;;5055974;28;20024;-43
2023/12/31 10:06:57;;;;;;;4.03;2.00;;;7.80;99.90;;;;;;5052905;28;20043;-43
2023/12/31 10:09:27;;;;;;;3.20;2.28;;;7.80;99.90;;;;;;5054705;28;20683;-43
2023/12/31 10:11:54;;;;;;;3.13;1.92;;;7.80;99.90;;;;;;5053158;28;20017;-47
2023/12/31 10:14:20;;;;;;;3.83;2.10;;;7.80;99.90;;;;;;5058712;28;20489;-43
2023/12/31 10:16:47;;;;;;;3.65;1.90;;;7.90;99.90;;;;;;5056962;28;20025;-43
2023/12/31 10:19:14;;;;;;;5.68;2.30;;;7.90;99.90;;;;;;5058971;28;20021;-43
2023/12/31 10:21:44;;;;;;;3.35;2.25;;;7.90;99.90;;;;;;5056328;28;20082;-43
2023/12/31 10:24:10;;;;;;;4.50;2.22;;;7.90;99.90;;;;;;5058245;28;20432;-44
2023/12/31 10:26:36;;;;;;;2.38;2.10;;;7.90;99.90;;;;;;5055817;28;20169;-44
2023/12/31 10:29:05;;;;;;;3.40;2.22;;;7.90;99.90;;;;;;5057923;28;20096;-42
2023/12/31 10:31:34;;;;;;;5.88;2.42;;;8.00;99.90;;;;;;5057432;28;20103;-42
2023/12/31 10:34:16;;;;;;;5.88;2.70;;;8.00;99.90;;;;;;5057445;28;20029;-42
2023/12/31 10:36:44;;;;;;;3.20;2.13;;;8.10;99.90;;;;;;5053071;28;20044;-43
2023/12/31 10:39:24;;;;;;;5.53;2.50;;;8.00;99.90;;;;;;5059077;28;20013;-43
2023/12/31 10:41:50;;;;;;;5.00;2.65;;;8.00;99.90;;;;;;5051246;28;20143;-45
2023/12/31 10:44:16;;;;;;;4.07;2.38;;;8.10;99.90;;;;;;5059494;28;20096;-43
2023/12/31 10:46:42;;;;;;;3.13;2.22;;;8.10;99.90;;;;;;5056301;28;20091;-45
2023/12/31 10:49:10;;;;;;;4.35;2.33;;;8.10;99.90;;;;;;5058610;28;20020;-45
2023/12/31 10:51:44;;;;;;;3.60;2.15;;;8.00;99.90;;;;;;5057313;28;20036;-45
2023/12/31 10:54:15;;;;;;;3.22;1.88;;;8.00;99.90;;;;;;5059255;28;20082;-43
2023/12/31 10:56:42;;;;;;;5.10;2.22;;;8.10;99.90;;;;;;5056954;28;20021;-44
2023/12/31 10:59:10;;;;;;;4.25;1.98;;;8.10;99.90;;;;;;5041214;28;20028;-44
2023/12/31 11:01:36;;;;;;;7.75;2.30;;;8.20;99.90;;;;;;5058102;28;20098;-44
2023/12/31 11:04:04;;;;;;;2.88;1.95;;;8.30;99.90;;;;;;5058697;28;20430;-46
2023/12/31 11:06:30;;;;;;;4.90;2.42;;;8.40;99.90;;;;;;5058604;28;20024;-46
2023/12/31 11:08:56;;;;;;;3.13;2.45;;;8.50;99.90;;;;;;5057310;28;20017;-45
2023/12/31 11:11:23;;;;;;;2.95;1.80;;;8.60;99.90;;;;;;5059994;28;20401;-46
2023/12/31 11:13:52;;;;;;;5.78;1.90;;;8.70;99.90;;;;;;5055694;28;20017;-44
2023/12/31 11:16:50;;;;;;;3.55;2.00;;;8.80;99.90;;;;;;5051914;28;20017;-42
2023/12/31 11:19:33;;;;;;;3.95;1.92;;;8.80;99.90;;;;;;5051198;28;20012;-43
2023/12/31 11:22:39;;;;;;;4.38;2.03;;;9.00;99.90;;;;;;5057494;28;20021;-44
2023/12/31 11:25:06;;;;;;;4.93;2.55;;;9.00;99.90;;;;;;5057273;28;20354;-46
2023/12/31 11:27:32;;;;;;;3.25;1.90;;;9.10;99.90;;;;;;5057962;28;20552;-44
2023/12/31 11:29:58;;;;;;;5.20;2.42;;;9.20;99.90;;;;;;5057980;28;20021;-43
2023/12/31 11:32:27;;;;;;;2.92;2.22;;;9.20;99.90;;;;;;5059933;28;20446;-43
2023/12/31 11:34:53;;;;;;;3.78;2.35;;;9.30;99.90;;;;;;5057224;28;20013;-44
2023/12/31 11:37:20;;;;;;;5.15;2.15;;;9.30;99.90;;;;;;5056039;28;20040;-43
2023/12/31 11:39:53;;;;;;;4.18;2.05;;;9.30;99.90;;;;;;5056750;28;20104;-42
2023/12/31 11:42:21;;;;;;;3.83;1.90;;;9.30;99.90;;;;;;5056373;28;20404;-45
2023/12/31 11:44:47;;;;;;;2.85;2.03;;;9.20;99.90;;;;;;5056781;28;20017;-43
2023/12/31 11:47:32;;;;;;;4.18;2.15;;;9.20;99.90;;;;;;5059489;28;20406;-43
2023/12/31 11:50:06;;;;;;;2.08;1.80;;;9.10;99.90;;;;;;5045091;28;20033;-42
2023/12/31 11:52:39;;;;;;;2.78;1.95;;;9.20;99.90;;;;;;5059238;28;20104;-43
2023/12/31 11:55:15;;;;;;;4.07;2.13;;;9.20;99.90;;;;;;5057626;28;20036;-43
2023/12/31 11:57:44;;;;;;;3.22;2.20;;;9.10;99.90;;;;;;5054075;28;20021;-43
2023/12/31 12:00:11;;;;;;;3.25;1.80;;;9.10;99.90;;;;;;5058559;28;20032;-43
2023/12/31 12:02:37;;;;;;;3.63;2.00;;;9.10;99.90;;;;;;5059022;28;20094;-45
2023/12/31 12:05:03;;;;;;;5.85;2.20;;;9.10;99.90;;;;;;5059138;28;20028;-43
2023/12/31 12:07:29;;;;;;;3.53;1.85;;;9.10;99.90;;;;;;5059713;28;20033;-43
2023/12/31 12:09:55;;;;;;;4.13;2.08;;;9.10;99.90;;;;;;5056561;28;20683;-43
2023/12/31 12:12:22;;;;;;;4.43;2.40;;;9.10;99.90;;;;;;5060942;28;20048;-43
2023/12/31 12:14:51;;;;;;;4.75;2.38;;;9.10;99.90;;;;;;5057602;28;20404;-44
2023/12/31 12:17:17;;;;;;;5.93;2.40;;;9.10;99.90;;;;;;5050804;28;20052;-43
2023/12/31 12:19:43;;;;;;;7.30;2.17;;;9.10;99.90;;;;;;5058840;28;20044;-43
2023/12/31 12:22:09;;;;;;;4.32;2.17;;;9.10;99.90;;;;;;5057770;28;20025;-45
2023/12/31 12:24:35;;;;;;;4.47;2.35;;;9.10;99.90;;;;;;5059650;28;20260;-43
2023/12/31 12:27:02;;;;;;;4.55;2.30;;;9.10;99.90;;;;;;5055679;28;20021;-45
2023/12/31 12:29:28;;;;;;;3.55;2.60;;;9.10;99.90;;;;;;5047277;28;20051;-43
2023/12/31 12:31:54;;;;;;;3.22;1.98;;;9.10;99.90;;;;;;5065610;28;20107;-43
2023/12/31 12:34:20;;;;;;;3.40;1.95;;;9.10;99.90;;;;;;5070978;28;20020;-45
2023/12/31 12:36:49;;;;;;;3.45;2.10;;;9.20;99.90;;;;;;5067739;28;20027;-43
2023/12/31 12:39:22;;;;;;;5.77;3.03;;;9.20;99.90;;;;;;5064310;28;20023;-43
2023/12/31 12:41:50;;;;;;;3.75;2.53;;;9.20;99.90;;;;;;5056873;28;20303;-43
2023/12/31 12:44:17;;;;;;;3.45;1.98;;;9.20;99.90;;;;;;5072886;28;20488;-44
2023/12/31 12:46:44;;;;;;;4.03;2.35;;;9.20;99.90;;;;;;5063466;28;20578;-43
2023/12/31 12:49:11;;;;;;;2.95;2.20;;;9.20;99.90;;;;;;5067197;28;20437;-44
2023/12/31 12:51:37;;;;;;;2.83;2.10;;;9.20;99.90;;;;;;5066634;28;20428;-44
2023/12/31 12:54:03;;;;;;;2.65;1.98;;;9.20;99.90;;;;;;5067506;28;20017;-43